sensor_id;sensor_type;location;lat;lon;timestamp;pressure;altitude;pressure_sealevel;temperature;humidity
80393;BME280;69719;45.544;10.218;2023-05-07T00:00:17;99888.19;;;20.89;58.74
80393;BME280;69719;45.544;10.218;2023-05-07T00:02:44;99896.88;;;20.90;59.04
80393;BME280;69719;45.544;10.218;2023-05-07T00:05:10;99903.13;;;20.99;58.74
80393;BME280;69719;45.544;10.218;2023-05-07T00:07:36;99901.28;;;20.75;59.59
80393;BME280;69719;45.544;10.218;2023-05-07T00:10:03;99901.81;;;20.72;59.74
80393;BME280;69719;45.544;10.218;2023-05-07T00:12:28;99901.22;;;20.81;59.23
80393;BME280;69719;45.544;10.218;2023-05-07T00:14:57;99895.41;;;20.78;59.57
80393;BME280;69719;45.544;10.218;2023-05-07T00:17:22;99899.13;;;20.77;59.43
80393;BME280;69719;45.544;10.218;2023-05-07T00:19:48;99901.13;;;20.91;59.11
80393;BME280;69719;45.544;10.218;2023-05-07T00:22:14;99906.94;;;20.64;60.36
80393;BME280;69719;45.544;10.218;2023-05-07T00:24:39;99913.13;;;20.54;60.70
80393;BME280;69719;45.544;10.218;2023-05-07T00:27:05;99910.94;;;20.61;60.30
80393;BME280;69719;45.544;10.218;2023-05-07T00:29:30;99909.91;;;20.57;60.25
80393;BME280;69719;45.544;10.218;2023-05-07T00:31:56;99906.69;;;20.65;59.91
80393;BME280;69719;45.544;10.218;2023-05-07T00:34:21;99907.53;;;20.56;60.21
80393;BME280;69719;45.544;10.218;2023-05-07T00:36:47;99902.47;;;20.59;59.90
80393;BME280;69719;45.544;10.218;2023-05-07T00:39:13;99897.88;;;20.70;59.66
80393;BME280;69719;45.544;10.218;2023-05-07T00:41:38;99899.13;;;20.77;59.40
80393;BME280;69719;45.544;10.218;2023-05-07T00:44:04;99900.09;;;20.63;59.86
80393;BME280;69719;45.544;10.218;2023-05-07T00:46:30;99900.59;;;20.65;59.79
80393;BME280;69719;45.544;10.218;2023-05-07T00:48:56;99892.94;;;20.63;59.86
80393;BME280;69719;45.544;10.218;2023-05-07T00:51:23;99904.28;;;20.64;60.01
80393;BME280;69719;45.544;10.218;2023-05-07T00:53:50;99905.09;;;20.64;59.85
80393;BME280;69719;45.544;10.218;2023-05-07T00:56:16;99909.91;;;20.57;60.19
80393;BME280;69719;45.544;10.218;2023-05-07T00:58:41;99920.03;;;20.50;60.82
80393;BME280;69719;45.544;10.218;2023-05-07T01:01:07;99913.44;;;20.48;60.74
80393;BME280;69719;45.544;10.218;2023-05-07T01:03:33;99923.88;;;20.63;60.13
80393;BME280;69719;45.544;10.218;2023-05-07T01:05:59;99914.69;;;20.55;60.64
80393;BME280;69719;45.544;10.218;2023-05-07T01:08:25;99911.78;;;20.57;60.25
80393;BME280;69719;45.544;10.218;2023-05-07T01:10:54;99912.63;;;20.52;60.67
80393;BME280;69719;45.544;10.218;2023-05-07T01:13:20;99916.91;;;20.43;60.83
80393;BME280;69719;45.544;10.218;2023-05-07T01:15:46;99926.19;;;20.41;60.95
80393;BME280;69719;45.544;10.218;2023-05-07T01:18:12;99927.00;;;20.36;61.38
80393;BME280;69719;45.544;10.218;2023-05-07T01:20:37;99926.00;;;20.32;61.47
80393;BME280;69719;45.544;10.218;2023-05-07T01:23:03;99937.66;;;20.26;61.50
80393;BME280;69719;45.544;10.218;2023-05-07T01:25:29;99930.75;;;20.30;61.38
80393;BME280;69719;45.544;10.218;2023-05-07T01:27:55;99927.06;;;20.31;61.44
80393;BME280;69719;45.544;10.218;2023-05-07T01:30:21;99931.06;;;20.29;61.42
80393;BME280;69719;45.544;10.218;2023-05-07T01:35:27;99929.22;;;20.29;61.56
80393;BME280;69719;45.544;10.218;2023-05-07T01:37:54;99933.91;;;20.32;61.35
80393;BME280;69719;45.544;10.218;2023-05-07T01:40:20;99929.78;;;20.21;61.76
80393;BME280;69719;45.544;10.218;2023-05-07T01:42:46;99940.63;;;20.15;61.99
80393;BME280;69719;45.544;10.218;2023-05-07T01:45:13;99943.84;;;20.07;62.42
80393;BME280;69719;45.544;10.218;2023-05-07T01:47:39;99934.91;;;20.02;62.57
80393;BME280;69719;45.544;10.218;2023-05-07T01:50:09;99928.22;;;20.20;61.79
80393;BME280;69719;45.544;10.218;2023-05-07T01:52:37;99924.50;;;20.16;62.18
80393;BME280;69719;45.544;10.218;2023-05-07T01:55:02;99934.38;;;20.06;62.67
80393;BME280;69719;45.544;10.218;2023-05-07T01:57:28;99942.03;;;20.02;62.84
80393;BME280;69719;45.544;10.218;2023-05-07T01:59:54;99935.63;;;20.13;62.43
80393;BME280;69719;45.544;10.218;2023-05-07T02:02:19;99922.44;;;20.08;62.37
80393;BME280;69719;45.544;10.218;2023-05-07T02:04:45;99932.41;;;20.21;62.04
80393;BME280;69719;45.544;10.218;2023-05-07T02:07:10;99933.50;;;20.15;62.39
80393;BME280;69719;45.544;10.218;2023-05-07T02:09:36;99936.09;;;20.25;61.94
80393;BME280;69719;45.544;10.218;2023-05-07T02:12:01;99925.47;;;20.30;61.72
80393;BME280;69719;45.544;10.218;2023-05-07T02:14:27;99929.22;;;20.29;61.73
80393;BME280;69719;45.544;10.218;2023-05-07T02:16:52;99932.38;;;20.26;61.81
80393;BME280;69719;45.544;10.218;2023-05-07T02:19:18;99935.13;;;20.06;62.59
80393;BME280;69719;45.544;10.218;2023-05-07T02:21:46;99934.69;;;19.99;62.80
80393;BME280;69719;45.544;10.218;2023-05-07T02:24:12;99930.50;;;19.93;63.09
80393;BME280;69719;45.544;10.218;2023-05-07T02:26:37;99930.22;;;19.94;62.99
80393;BME280;69719;45.544;10.218;2023-05-07T02:29:02;99924.13;;;19.94;63.24
80393;BME280;69719;45.544;10.218;2023-05-07T02:31:28;99915.38;;;20.04;62.74
80393;BME280;69719;45.544;10.218;2023-05-07T02:33:53;99930.72;;;19.96;63.05
80393;BME280;69719;45.544;10.218;2023-05-07T02:36:19;99911.13;;;20.02;63.06
80393;BME280;69719;45.544;10.218;2023-05-07T02:38:44;99914.00;;;20.06;62.57
80393;BME280;69719;45.544;10.218;2023-05-07T02:41:10;99906.53;;;20.18;61.49
80393;BME280;69719;45.544;10.218;2023-05-07T02:43:36;99917.03;;;20.28;61.50
80393;BME280;69719;45.544;10.218;2023-05-07T02:46:05;99910.78;;;20.14;62.12
80393;BME280;69719;45.544;10.218;2023-05-07T02:48:31;99919.84;;;20.03;62.60
80393;BME280;69719;45.544;10.218;2023-05-07T02:50:58;99915.41;;;19.98;63.10
80393;BME280;69719;45.544;10.218;2023-05-07T02:53:24;99915.56;;;20.12;62.49
80393;BME280;69719;45.544;10.218;2023-05-07T02:55:56;99908.88;;;20.20;62.25
80393;BME280;69719;45.544;10.218;2023-05-07T02:58:22;99903.28;;;20.31;61.70
80393;BME280;69719;45.544;10.218;2023-05-07T03:00:47;99905.16;;;20.26;61.31
80393;BME280;69719;45.544;10.218;2023-05-07T03:03:13;99905.41;;;20.29;60.97
80393;BME280;69719;45.544;10.218;2023-05-07T03:05:39;99897.53;;;20.19;60.89
80393;BME280;69719;45.544;10.218;2023-05-07T03:08:05;99894.13;;;20.19;60.01
80393;BME280;69719;45.544;10.218;2023-05-07T03:10:30;99886.97;;;20.19;59.01
80393;BME280;69719;45.544;10.218;2023-05-07T03:12:56;99884.38;;;20.14;58.56
80393;BME280;69719;45.544;10.218;2023-05-07T03:15:21;99880.66;;;20.15;58.26
80393;BME280;69719;45.544;10.218;2023-05-07T03:17:47;99873.88;;;20.04;58.51
80393;BME280;69719;45.544;10.218;2023-05-07T03:20:13;99870.25;;;19.95;58.30
80393;BME280;69719;45.544;10.218;2023-05-07T03:22:39;99873.41;;;19.97;57.66
80393;BME280;69719;45.544;10.218;2023-05-07T03:25:05;99870.72;;;20.02;57.43
80393;BME280;69719;45.544;10.218;2023-05-07T03:27:31;99876.00;;;20.02;57.36
80393;BME280;69719;45.544;10.218;2023-05-07T03:29:57;99875.28;;;19.91;57.87
80393;BME280;69719;45.544;10.218;2023-05-07T03:32:22;99879.84;;;19.81;58.03
80393;BME280;69719;45.544;10.218;2023-05-07T03:34:48;99885.94;;;19.81;58.00
80393;BME280;69719;45.544;10.218;2023-05-07T03:37:13;99887.19;;;19.89;57.29
80393;BME280;69719;45.544;10.218;2023-05-07T03:39:39;99887.50;;;19.82;57.31
80393;BME280;69719;45.544;10.218;2023-05-07T03:42:04;99881.19;;;19.78;57.29
80393;BME280;69719;45.544;10.218;2023-05-07T03:44:30;99885.94;;;19.81;56.79
80393;BME280;69719;45.544;10.218;2023-05-07T03:46:55;99882.47;;;19.86;56.68
80393;BME280;69719;45.544;10.218;2023-05-07T03:49:21;99890.34;;;19.91;56.53
80393;BME280;69719;45.544;10.218;2023-05-07T03:51:46;99880.88;;;19.85;56.10
80393;BME280;69719;45.544;10.218;2023-05-07T03:54:12;99883.50;;;19.90;56.24
80393;BME280;69719;45.544;10.218;2023-05-07T03:56:37;99887.19;;;19.89;55.92
80393;BME280;69719;45.544;10.218;2023-05-07T03:59:03;99894.13;;;19.80;56.20
80393;BME280;69719;45.544;10.218;2023-05-07T04:01:28;99894.66;;;19.82;56.36
80393;BME280;69719;45.544;10.218;2023-05-07T04:03:54;99902.06;;;19.80;56.48
80393;BME280;69719;45.544;10.218;2023-05-07T04:06:19;99896.72;;;19.85;56.44
80393;BME280;69719;45.544;10.218;2023-05-07T04:08:45;99903.09;;;19.79;56.70
80393;BME280;69719;45.544;10.218;2023-05-07T04:11:10;99905.53;;;19.70;57.53
80393;BME280;69719;45.544;10.218;2023-05-07T04:13:35;99897.00;;;19.83;57.22
80393;BME280;69719;45.544;10.218;2023-05-07T04:16:02;99899.66;;;19.78;57.89
80393;BME280;69719;45.544;10.218;2023-05-07T04:18:28;99907.06;;;19.81;58.81
80393;BME280;69719;45.544;10.218;2023-05-07T04:20:54;99900.91;;;19.91;57.52
80393;BME280;69719;45.544;10.218;2023-05-07T04:23:20;99898.13;;;19.72;57.12
80393;BME280;69719;45.544;10.218;2023-05-07T04:25:45;99904.69;;;19.80;57.19
80393;BME280;69719;45.544;10.218;2023-05-07T04:28:11;99907.13;;;19.71;56.73
80393;BME280;69719;45.544;10.218;2023-05-07T04:30:38;99908.94;;;19.76;56.55
80393;BME280;69719;45.544;10.218;2023-05-07T04:33:04;99906.31;;;19.76;56.89
80393;BME280;69719;45.544;10.218;2023-05-07T04:35:29;99912.63;;;19.75;57.11
80393;BME280;69719;45.544;10.218;2023-05-07T04:37:55;99910.59;;;19.67;57.93
80393;BME280;69719;45.544;10.218;2023-05-07T04:40:20;99916.66;;;19.67;58.16
80393;BME280;69719;45.544;10.218;2023-05-07T04:42:46;99918.72;;;19.75;58.27
80393;BME280;69719;45.544;10.218;2023-05-07T04:45:11;99913.16;;;19.77;58.08
80393;BME280;69719;45.544;10.218;2023-05-07T04:47:38;99918.72;;;19.70;58.61
80393;BME280;69719;45.544;10.218;2023-05-07T04:50:05;99926.88;;;19.79;58.61
80393;BME280;69719;45.544;10.218;2023-05-07T04:52:30;99919.03;;;19.69;59.25
80393;BME280;69719;45.544;10.218;2023-05-07T04:54:58;99931.19;;;19.60;59.94
80393;BME280;69719;45.544;10.218;2023-05-07T04:57:24;99932.22;;;19.69;59.91
80393;BME280;69719;45.544;10.218;2023-05-07T04:59:50;99928.03;;;19.63;60.03
80393;BME280;69719;45.544;10.218;2023-05-07T05:02:15;99938.09;;;19.56;60.39
80393;BME280;69719;45.544;10.218;2023-05-07T05:04:41;99942.84;;;19.59;60.12
80393;BME280;69719;45.544;10.218;2023-05-07T05:07:06;99940.94;;;19.64;60.11
80393;BME280;69719;45.544;10.218;2023-05-07T05:09:32;99947.53;;;19.67;59.53
80393;BME280;69719;45.544;10.218;2023-05-07T05:11:57;99942.13;;;19.87;58.91
80393;BME280;69719;45.544;10.218;2023-05-07T05:14:24;99952.38;;;19.93;58.31
80393;BME280;69719;45.544;10.218;2023-05-07T05:16:49;99947.63;;;19.95;57.70
80393;BME280;69719;45.544;10.218;2023-05-07T05:19:15;99961.31;;;20.02;57.02
80393;BME280;69719;45.544;10.218;2023-05-07T05:21:40;99961.09;;;19.99;56.76
80393;BME280;69719;45.544;10.218;2023-05-07T05:24:06;99965.81;;;20.02;56.61
80393;BME280;69719;45.544;10.218;2023-05-07T05:26:31;99961.56;;;20.06;56.44
80393;BME280;69719;45.544;10.218;2023-05-07T05:28:57;99953.09;;;20.09;56.06
80393;BME280;69719;45.544;10.218;2023-05-07T05:31:22;99948.34;;;20.06;56.26
80393;BME280;69719;45.544;10.218;2023-05-07T05:33:48;99937.69;;;20.21;55.59
80393;BME280;69719;45.544;10.218;2023-05-07T05:36:13;99937.69;;;20.21;55.63
80393;BME280;69719;45.544;10.218;2023-05-07T05:38:39;99941.44;;;20.20;55.65
80393;BME280;69719;45.544;10.218;2023-05-07T05:41:05;99941.13;;;20.22;55.64
80393;BME280;69719;45.544;10.218;2023-05-07T05:43:30;99937.66;;;20.26;55.78
80393;BME280;69719;45.544;10.218;2023-05-07T05:45:56;99946.41;;;20.17;56.31
80393;BME280;69719;45.544;10.218;2023-05-07T05:48:22;99948.34;;;20.06;57.30
80393;BME280;69719;45.544;10.218;2023-05-07T05:50:48;99942.50;;;20.14;57.33
80393;BME280;69719;45.544;10.218;2023-05-07T05:53:13;99953.63;;;20.06;58.18
80393;BME280;69719;45.544;10.218;2023-05-07T05:55:39;99948.59;;;20.10;58.26
80393;BME280;69719;45.544;10.218;2023-05-07T05:58:04;99949.13;;;20.07;58.38
80393;BME280;69719;45.544;10.218;2023-05-07T06:00:30;99944.63;;;20.12;57.87
80393;BME280;69719;45.544;10.218;2023-05-07T06:02:56;99946.41;;;20.17;57.49
80393;BME280;69719;45.544;10.218;2023-05-07T06:05:21;99945.69;;;20.06;57.66
80393;BME280;69719;45.544;10.218;2023-05-07T06:07:47;99940.38;;;20.16;57.76
80393;BME280;69719;45.544;10.218;2023-05-07T06:10:12;99937.16;;;20.24;57.66
80393;BME280;69719;45.544;10.218;2023-05-07T06:12:38;99931.53;;;20.36;57.63
80393;BME280;69719;45.544;10.218;2023-05-07T06:15:04;99931.97;;;20.43;57.64
80393;BME280;69719;45.544;10.218;2023-05-07T06:17:29;99940.09;;;20.51;57.46
80393;BME280;69719;45.544;10.218;2023-05-07T06:19:55;99940.28;;;20.31;57.47
80393;BME280;69719;45.544;10.218;2023-05-07T06:22:21;99940.03;;;20.28;57.85
80393;BME280;69719;45.544;10.218;2023-05-07T06:24:47;99937.66;;;20.31;57.35
80393;BME280;69719;45.544;10.218;2023-05-07T06:27:12;99935.50;;;20.33;57.51
80393;BME280;69719;45.544;10.218;2023-05-07T06:29:38;99946.03;;;20.38;57.42
80393;BME280;69719;45.544;10.218;2023-05-07T06:32:10;99929.59;;;20.46;57.22
80393;BME280;69719;45.544;10.218;2023-05-07T06:34:36;99932.16;;;20.51;57.47
80393;BME280;69719;45.544;10.218;2023-05-07T06:37:02;99930.03;;;20.53;57.29
80393;BME280;69719;45.544;10.218;2023-05-07T06:39:28;99919.88;;;20.37;57.74
80393;BME280;69719;45.544;10.218;2023-05-07T06:41:54;99921.69;;;20.41;57.40
80393;BME280;69719;45.544;10.218;2023-05-07T06:44:19;99917.56;;;20.59;57.12
80393;BME280;69719;45.544;10.218;2023-05-07T06:46:45;99923.09;;;20.62;56.97
80393;BME280;69719;45.544;10.218;2023-05-07T06:49:12;99925.91;;;20.71;57.10
80393;BME280;69719;45.544;10.218;2023-05-07T06:51:37;99924.78;;;20.77;56.84
80393;BME280;69719;45.544;10.218;2023-05-07T06:54:03;99929.28;;;20.76;56.60
80393;BME280;69719;45.544;10.218;2023-05-07T06:56:30;99931.41;;;20.74;56.59
80393;BME280;69719;45.544;10.218;2023-05-07T06:58:55;99940.03;;;20.85;56.17
80393;BME280;69719;45.544;10.218;2023-05-07T07:01:21;99948.22;;;20.89;56.02
80393;BME280;69719;45.544;10.218;2023-05-07T07:03:46;99947.22;;;20.85;56.03
80393;BME280;69719;45.544;10.218;2023-05-07T07:06:12;99940.78;;;20.91;55.98
80393;BME280;69719;45.544;10.218;2023-05-07T07:08:37;99939.38;;;20.98;55.64
80393;BME280;69719;45.544;10.218;2023-05-07T07:11:04;99934.34;;;21.02;55.12
80393;BME280;69719;45.544;10.218;2023-05-07T07:13:30;99929.50;;;21.09;54.93
80393;BME280;69719;45.544;10.218;2023-05-07T07:15:55;99927.94;;;21.08;55.41
80393;BME280;69719;45.544;10.218;2023-05-07T07:18:21;99926.41;;;21.02;55.57
80393;BME280;69719;45.544;10.218;2023-05-07T07:20:46;99934.13;;;21.22;55.12
80393;BME280;69719;45.544;10.218;2023-05-07T07:23:12;99935.53;;;21.14;55.44
80393;BME280;69719;45.544;10.218;2023-05-07T07:25:37;99938.84;;;21.25;55.31
80393;BME280;69719;45.544;10.218;2023-05-07T07:28:03;99935.72;;;21.23;55.38
80393;BME280;69719;45.544;10.218;2023-05-07T07:30:29;99939.34;;;21.27;55.50
80393;BME280;69719;45.544;10.218;2023-05-07T07:32:54;99936.84;;;21.59;54.67
80393;BME280;69719;45.544;10.218;2023-05-07T07:35:23;99931.56;;;21.96;53.60
80393;BME280;69719;45.544;10.218;2023-05-07T07:37:48;99933.22;;;22.11;53.42
80393;BME280;69719;45.544;10.218;2023-05-07T07:40:15;99936.00;;;22.19;53.50
80393;BME280;69719;45.544;10.218;2023-05-07T07:42:41;99933.03;;;22.53;53.01
80393;BME280;69719;45.544;10.218;2023-05-07T07:45:07;99928.69;;;22.62;52.44
80393;BME280;69719;45.544;10.218;2023-05-07T07:47:32;99925.28;;;22.57;52.35
80393;BME280;69719;45.544;10.218;2023-05-07T07:49:58;99924.31;;;22.53;52.54
80393;BME280;69719;45.544;10.218;2023-05-07T07:52:23;99937.38;;;22.49;52.52
80393;BME280;69719;45.544;10.218;2023-05-07T07:54:49;99932.94;;;22.45;52.41
80393;BME280;69719;45.544;10.218;2023-05-07T07:57:14;99945.09;;;22.46;52.29
80393;BME280;69719;45.544;10.218;2023-05-07T07:59:40;99946.50;;;22.57;52.33
80393;BME280;69719;45.544;10.218;2023-05-07T08:02:08;99941.84;;;22.67;51.88
80393;BME280;69719;45.544;10.218;2023-05-07T08:04:33;99933.03;;;22.85;51.51
80393;BME280;69719;45.544;10.218;2023-05-07T08:06:59;99950.94;;;23.07;51.02
80393;BME280;69719;45.544;10.218;2023-05-07T08:09:25;99945.34;;;23.22;50.70
80393;BME280;69719;45.544;10.218;2023-05-07T08:11:50;99955.06;;;22.99;50.32
80393;BME280;69719;45.544;10.218;2023-05-07T08:14:16;99960.38;;;23.40;49.44
80393;BME280;69719;45.544;10.218;2023-05-07T08:16:41;99956.22;;;23.61;49.36
80393;BME280;69719;45.544;10.218;2023-05-07T08:19:07;99966.50;;;23.54;49.84
80393;BME280;69719;45.544;10.218;2023-05-07T08:21:32;99960.78;;;23.47;49.87
80393;BME280;69719;45.544;10.218;2023-05-07T08:23:58;99964.50;;;23.46;49.64
80393;BME280;69719;45.544;10.218;2023-05-07T08:26:23;99955.66;;;23.51;49.89
80393;BME280;69719;45.544;10.218;2023-05-07T08:28:49;99956.13;;;23.66;49.05
80393;BME280;69719;45.544;10.218;2023-05-07T08:31:14;99966.53;;;23.76;48.56
80393;BME280;69719;45.544;10.218;2023-05-07T08:33:40;99965.78;;;23.98;48.12
80393;BME280;69719;45.544;10.218;2023-05-07T08:36:05;99967.22;;;24.18;47.89
80393;BME280;69719;45.544;10.218;2023-05-07T08:38:31;99966.00;;;24.24;47.72
80393;BME280;69719;45.544;10.218;2023-05-07T08:40:56;99969.31;;;24.29;47.55
80393;BME280;69719;45.544;10.218;2023-05-07T08:43:26;99968.00;;;24.40;46.88
80393;BME280;69719;45.544;10.218;2023-05-07T08:45:53;99980.53;;;24.40;46.48
80393;BME280;69719;45.544;10.218;2023-05-07T08:48:22;99979.44;;;24.41;46.27
80393;BME280;69719;45.544;10.218;2023-05-07T08:50:50;99979.69;;;24.31;47.31
80393;BME280;69719;45.544;10.218;2023-05-07T08:53:16;99974.38;;;24.31;47.60
80393;BME280;69719;45.544;10.218;2023-05-07T08:55:42;99970.84;;;24.22;48.45
80393;BME280;69719;45.544;10.218;2023-05-07T08:58:08;99969.94;;;24.48;47.69
80393;BME280;69719;45.544;10.218;2023-05-07T09:00:36;99961.19;;;24.48;47.36
80393;BME280;69719;45.544;10.218;2023-05-07T09:03:01;99969.25;;;24.65;46.61
80393;BME280;69719;45.544;10.218;2023-05-07T09:05:27;99980.81;;;24.61;46.95
80393;BME280;69719;45.544;10.218;2023-05-07T09:07:52;99968.19;;;24.44;47.29
80393;BME280;69719;45.544;10.218;2023-05-07T09:10:18;99975.47;;;24.74;46.88
80393;BME280;69719;45.544;10.218;2023-05-07T09:12:43;99970.13;;;24.74;46.58
80393;BME280;69719;45.544;10.218;2023-05-07T09:15:11;99966.72;;;24.82;46.78
80393;BME280;69719;45.544;10.218;2023-05-07T09:17:37;99963.09;;;24.78;46.97
80393;BME280;69719;45.544;10.218;2023-05-07T09:20:04;99973.84;;;24.95;46.84
80393;BME280;69719;45.544;10.218;2023-05-07T09:22:35;99970.50;;;24.90;46.29
80393;BME280;69719;45.544;10.218;2023-05-07T09:25:01;99965.84;;;24.95;45.38
80393;BME280;69719;45.544;10.218;2023-05-07T09:27:27;99967.47;;;24.74;45.85
80393;BME280;69719;45.544;10.218;2023-05-07T09:29:52;99968.13;;;24.80;45.88
80393;BME280;69719;45.544;10.218;2023-05-07T09:32:18;99975.38;;;24.96;45.79
80393;BME280;69719;45.544;10.218;2023-05-07T09:34:44;99968.50;;;24.95;46.22
80393;BME280;69719;45.544;10.218;2023-05-07T09:37:12;99965.00;;;24.86;46.31
80393;BME280;69719;45.544;10.218;2023-05-07T09:39:43;99966.94;;;24.94;46.23
80393;BME280;69719;45.544;10.218;2023-05-07T09:42:09;99958.09;;;25.24;45.30
80393;BME280;69719;45.544;10.218;2023-05-07T09:44:35;99962.72;;;24.71;45.96
80393;BME280;69719;45.544;10.218;2023-05-07T09:47:04;99958.19;;;25.02;45.64
80393;BME280;69719;45.544;10.218;2023-05-07T09:49:30;99968.06;;;25.02;45.72
80393;BME280;69719;45.544;10.218;2023-05-07T09:51:56;99965.50;;;25.27;44.87
80393;BME280;69719;45.544;10.218;2023-05-07T09:54:24;99961.34;;;25.61;44.61
80393;BME280;69719;45.544;10.218;2023-05-07T09:56:52;99963.38;;;25.47;44.53
80393;BME280;69719;45.544;10.218;2023-05-07T09:59:18;99962.75;;;25.50;44.24
80393;BME280;69719;45.544;10.218;2023-05-07T10:01:45;99959.78;;;25.43;44.76
80393;BME280;69719;45.544;10.218;2023-05-07T10:04:11;99961.06;;;25.14;44.96
80393;BME280;69719;45.544;10.218;2023-05-07T10:06:37;99958.66;;;25.44;44.71
80393;BME280;69719;45.544;10.218;2023-05-07T10:09:04;99962.94;;;25.14;45.89
80393;BME280;69719;45.544;10.218;2023-05-07T10:11:33;99952.91;;;25.19;45.40
80393;BME280;69719;45.544;10.218;2023-05-07T10:13:59;99952.34;;;25.40;45.10
80393;BME280;69719;45.544;10.218;2023-05-07T10:16:29;99957.78;;;25.74;43.99
80393;BME280;69719;45.544;10.218;2023-05-07T10:18:58;99953.69;;;25.76;43.94
80393;BME280;69719;45.544;10.218;2023-05-07T10:21:24;99956.19;;;25.90;43.26
80393;BME280;69719;45.544;10.218;2023-05-07T10:24:22;99940.19;;;25.73;43.97
80393;BME280;69719;45.544;10.218;2023-05-07T10:26:51;99937.53;;;25.73;44.24
80393;BME280;69719;45.544;10.218;2023-05-07T10:32:27;99931.44;;;26.15;42.43
80393;BME280;69719;45.544;10.218;2023-05-07T10:34:58;99937.72;;;25.85;42.67
80393;BME280;69719;45.544;10.218;2023-05-07T10:37:25;99931.25;;;25.77;43.77
80393;BME280;69719;45.544;10.218;2023-05-07T10:39:51;99929.06;;;25.88;42.92
80393;BME280;69719;45.544;10.218;2023-05-07T10:42:17;99929.38;;;25.95;43.71
80393;BME280;69719;45.544;10.218;2023-05-07T10:44:43;99933.31;;;25.97;43.70
80393;BME280;69719;45.544;10.218;2023-05-07T10:47:10;99918.56;;;25.91;43.59
80393;BME280;69719;45.544;10.218;2023-05-07T10:52:18;99920.22;;;25.27;45.36
80393;BME280;69719;45.544;10.218;2023-05-07T10:54:44;99914.78;;;25.67;44.06
80393;BME280;69719;45.544;10.218;2023-05-07T10:59:57;99915.13;;;26.08;43.15
80393;BME280;69719;45.544;10.218;2023-05-07T11:02:23;99908.66;;;25.92;43.75
80393;BME280;69719;45.544;10.218;2023-05-07T11:05:21;99918.72;;;25.61;44.03
80393;BME280;69719;45.544;10.218;2023-05-07T11:08:02;99912.13;;;25.58;43.99
80393;BME280;69719;45.544;10.218;2023-05-07T11:10:56;99917.44;;;26.01;43.55
80393;BME280;69719;45.544;10.218;2023-05-07T11:13:48;99919.03;;;25.93;43.42
80393;BME280;69719;45.544;10.218;2023-05-07T11:16:22;99907.91;;;26.00;42.45
80393;BME280;69719;45.544;10.218;2023-05-07T11:18:53;99915.25;;;25.94;42.93
80393;BME280;69719;45.544;10.218;2023-05-07T11:21:41;99904.59;;;26.20;42.72
80393;BME280;69719;45.544;10.218;2023-05-07T11:24:09;99904.47;;;26.08;41.18
80393;BME280;69719;45.544;10.218;2023-05-07T11:26:47;99904.28;;;26.22;41.81
80393;BME280;69719;45.544;10.218;2023-05-07T11:29:20;99906.16;;;26.30;42.39
80393;BME280;69719;45.544;10.218;2023-05-07T11:31:50;99901.56;;;26.47;41.68
80393;BME280;69719;45.544;10.218;2023-05-07T11:34:20;99901.88;;;26.37;41.67
80393;BME280;69719;45.544;10.218;2023-05-07T11:36:47;99899.22;;;26.37;41.32
80393;BME280;69719;45.544;10.218;2023-05-07T11:39:24;99895.16;;;26.31;40.86
80393;BME280;69719;45.544;10.218;2023-05-07T11:41:49;99891.16;;;26.54;40.55
80393;BME280;69719;45.544;10.218;2023-05-07T11:44:15;99896.84;;;26.44;40.10
80393;BME280;69719;45.544;10.218;2023-05-07T11:46:43;99899.63;;;26.56;39.87
80393;BME280;69719;45.544;10.218;2023-05-07T11:49:10;99898.16;;;26.30;39.77
80393;BME280;69719;45.544;10.218;2023-05-07T11:51:35;99897.81;;;26.31;40.65
80393;BME280;69719;45.544;10.218;2023-05-07T11:54:03;99891.91;;;26.00;40.22
80393;BME280;69719;45.544;10.218;2023-05-07T11:56:29;99895.97;;;26.06;41.58
80393;BME280;69719;45.544;10.218;2023-05-07T11:58:54;99890.94;;;26.30;41.36
80393;BME280;69719;45.544;10.218;2023-05-07T12:01:20;99896.78;;;26.61;40.30
80393;BME280;69719;45.544;10.218;2023-05-07T12:03:46;99894.16;;;26.53;40.87
80393;BME280;69719;45.544;10.218;2023-05-07T12:06:12;99891.69;;;26.39;40.91
80393;BME280;69719;45.544;10.218;2023-05-07T12:08:40;99893.19;;;25.77;43.21
80393;BME280;69719;45.544;10.218;2023-05-07T12:11:16;99900.06;;;25.95;42.72
80393;BME280;69719;45.544;10.218;2023-05-07T12:13:46;99894.09;;;26.15;42.63
80393;BME280;69719;45.544;10.218;2023-05-07T12:16:12;99889.63;;;26.45;41.96
80393;BME280;69719;45.544;10.218;2023-05-07T12:18:38;99891.34;;;26.49;41.58
80393;BME280;69719;45.544;10.218;2023-05-07T12:21:05;99892.31;;;26.45;41.28
80393;BME280;69719;45.544;10.218;2023-05-07T12:23:32;99889.25;;;26.63;40.56
80393;BME280;69719;45.544;10.218;2023-05-07T12:25:59;99892.72;;;26.72;40.05
80393;BME280;69719;45.544;10.218;2023-05-07T12:28:25;99890.16;;;26.76;39.87
80393;BME280;69719;45.544;10.218;2023-05-07T12:30:51;99886.25;;;26.65;39.57
80393;BME280;69719;45.544;10.218;2023-05-07T12:33:24;99883.72;;;26.22;40.22
80393;BME280;69719;45.544;10.218;2023-05-07T12:35:50;99879.31;;;26.26;40.34
80393;BME280;69719;45.544;10.218;2023-05-07T12:38:18;99878.47;;;26.51;39.45
80393;BME280;69719;45.544;10.218;2023-05-07T12:40:47;99883.63;;;26.56;39.42
80393;BME280;69719;45.544;10.218;2023-05-07T12:43:26;99883.41;;;26.79;39.59
80393;BME280;69719;45.544;10.218;2023-05-07T12:45:57;99881.94;;;26.90;39.74
80393;BME280;69719;45.544;10.218;2023-05-07T12:48:25;99879.72;;;26.92;39.86
80393;BME280;69719;45.544;10.218;2023-05-07T12:50:54;99882.28;;;26.71;39.25
80393;BME280;69719;45.544;10.218;2023-05-07T12:53:21;99869.16;;;26.11;40.36
80393;BME280;69719;45.544;10.218;2023-05-07T12:55:50;99870.38;;;26.22;39.35
80393;BME280;69719;45.544;10.218;2023-05-07T12:58:36;99858.69;;;26.44;38.52